»·PEaware :: PRD69 NV11-KTOA

PRD69 :: NV11-KTOA

FLIGHT INFORMATION

Flight Status: Arrived
Operator: Unknown
More flights by this operator :: More flights under this callsign
Pilot: Ryan B. (8502)
Aircraft: CESSNA 550 CITATION 2/S2/BRAVO
(C550)
More flights by this aircraft type
Origin: NV11 Yucca Airstrip
United States
Destination: KTOA Zamperini
United States
More flights between these airports :: More routes between these airports
Route: +DAWNA KAYOH7
File this flight plan on PilotEdge
Remarks:
Altitude:
(Current/Filed)
29,000ft
Speed:
(Current/Filed)
250kts
Departed: 30-Dec-19 01:55 PM
Arrived: 30-Dec-19 03:00 PM
Distance/Time
Traveled:
220nm/1:05
Distance/Time
To Go:
Arrived

Flight Plot

Page will automatically refresh every two minutes.


Map Options




Map Legend


Flown Route
Filed Route
Departure Airport
Arrival Airport
Navaid (VOR, NDB)
Fix

Horizontal Profiles

Position Reports

Time Latitude Longitude Heading Altitude Ground
Speed
30-Dec-19 13:46 36.934984 -116.030709 72 3924ft 0kts
30-Dec-19 13:47 36.934984 -116.030709 72 3924ft 0kts
30-Dec-19 13:48 36.934984 -116.030709 72 3924ft 0kts
30-Dec-19 13:49 36.934984 -116.030709 72 3924ft 0kts
30-Dec-19 13:50 36.934984 -116.030709 72 3924ft 0kts
30-Dec-19 13:51 36.934984 -116.030709 72 3924ft 0kts
30-Dec-19 13:52 36.934984 -116.030709 72 3924ft 0kts
30-Dec-19 13:53 36.935139 -116.030528 346 3923ft 6kts
30-Dec-19 13:54 36.965583 -116.050321 333 5172ft 215kts
30-Dec-19 13:55 36.970223 -116.117428 255 9718ft 234kts
30-Dec-19 13:56 36.949113 -116.198020 254 13499ft 253kts
30-Dec-19 13:57 36.926681 -116.281837 254 16961ft 260kts
30-Dec-19 13:58 36.903419 -116.368544 254 19893ft 269kts
30-Dec-19 13:59 36.879019 -116.459084 253 22209ft 286kts
30-Dec-19 14:00 36.853006 -116.555160 253 24258ft 297kts
30-Dec-19 14:01 36.826761 -116.651780 252 26396ft 295kts
30-Dec-19 14:02 36.778131 -116.726716 180 27927ft 313kts
30-Dec-19 14:03 36.709623 -116.661224 139 29131ft 328kts
30-Dec-19 14:04 36.634301 -116.587219 142 29237ft 362kts
30-Dec-19 14:05 36.552653 -116.508781 142 29237ft 379kts
30-Dec-19 14:07 36.468123 -116.427800 142 29237ft 387kts
30-Dec-19 14:08 36.382636 -116.346136 143 29236ft 390kts
30-Dec-19 14:09 36.296413 -116.263998 143 29236ft 391kts
30-Dec-19 14:10 36.210270 -116.182180 143 29236ft 391kts
30-Dec-19 14:11 36.123879 -116.100361 143 29233ft 392kts
30-Dec-19 14:12 36.037167 -116.018464 143 29206ft 392kts
30-Dec-19 14:13 35.950685 -115.937062 143 29162ft 393kts
30-Dec-19 14:14 35.863027 -115.854794 143 29161ft 392kts
30-Dec-19 14:15 35.776306 -115.773637 143 29166ft 392kts
30-Dec-19 14:16 35.683328 -115.709145 181 29157ft 391kts
30-Dec-19 14:17 35.588856 -115.772471 215 29146ft 393kts
30-Dec-19 14:18 35.500173 -115.850676 216 29137ft 394kts
30-Dec-19 14:19 35.411054 -115.929010 216 29128ft 395kts
30-Dec-19 14:20 35.321611 -116.007417 216 29128ft 395kts
30-Dec-19 14:21 35.234193 -116.083830 216 29128ft 395kts
30-Dec-19 14:22 35.148525 -116.158519 216 29129ft 395kts
30-Dec-19 14:23 35.058322 -116.236954 216 28602ft 407kts
30-Dec-19 14:24 34.965865 -116.316929 217 27287ft 407kts
30-Dec-19 14:25 34.878684 -116.392857 214 26088ft 375kts
30-Dec-19 14:26 34.796821 -116.466055 222 24195ft 367kts
30-Dec-19 14:27 34.725074 -116.551584 223 24129ft 364kts
30-Dec-19 14:28 34.653027 -116.640101 223 24130ft 371kts
30-Dec-19 14:28 34.591546 -116.715485 222 24118ft 374kts
30-Dec-19 14:30 34.505656 -116.820515 222 24086ft 375kts
30-Dec-19 14:30 34.444191 -116.895445 223 24075ft 375kts
30-Dec-19 14:31 34.371377 -116.984037 223 23482ft 368kts
30-Dec-19 14:32 34.299245 -117.071568 222 21442ft 363kts
30-Dec-19 14:33 34.212232 -117.120451 186 19244ft 349kts
30-Dec-19 14:34 34.118601 -117.134831 185 17454ft 340kts
30-Dec-19 14:35 34.050382 -117.144926 185 16271ft 334kts
30-Dec-19 14:36 33.972271 -117.156489 184 13836ft 324kts
30-Dec-19 14:37 33.872688 -117.171064 185 10513ft 319kts
30-Dec-19 14:38 33.791149 -117.200081 238 9393ft 266kts
30-Dec-19 14:39 33.777828 -117.284863 271 8025ft 257kts
30-Dec-19 14:40 33.778325 -117.370078 273 7993ft 256kts
30-Dec-19 14:41 33.779213 -117.453824 272 7992ft 253kts
30-Dec-19 14:42 33.763258 -117.530194 213 7997ft 245kts
30-Dec-19 14:43 33.707613 -117.577378 212 7987ft 245kts
30-Dec-19 14:44 33.651442 -117.624752 212 7977ft 247kts
30-Dec-19 14:45 33.596915 -117.670707 212 7723ft 251kts
30-Dec-19 14:46 33.539726 -117.718456 211 6643ft 248kts
30-Dec-19 14:47 33.483238 -117.765176 211 5226ft 245kts
30-Dec-19 14:48 33.436049 -117.819480 271 3954ft 245kts
30-Dec-19 14:49 33.466661 -117.893162 301 3007ft 253kts
30-Dec-19 14:50 33.499959 -117.963648 302 2967ft 243kts
30-Dec-19 14:51 33.533419 -118.034006 302 2965ft 242kts
30-Dec-19 14:52 33.577049 -118.093344 321 2966ft 238kts
30-Dec-19 14:53 33.626380 -118.146456 320 2972ft 236kts
30-Dec-19 14:54 33.673062 -118.197226 319 2978ft 232kts
30-Dec-19 14:55 33.715751 -118.241828 322 2736ft 193kts
30-Dec-19 14:56 33.755231 -118.274643 324 2139ft 144kts
30-Dec-19 14:57 33.780912 -118.304740 309 1083ft 118kts
30-Dec-19 14:58 33.800277 -118.333909 308 123ft 102kts
30-Dec-19 14:59 33.805993 -118.344251 288 94ft 16kts
30-Dec-19 15:00 33.804116 -118.346507 133 97ft 0kts

Navigation Log

Ident Type
Flight plan parsing failed, navigation log unavailable